JBU1420 KCLE-KJFK
Flight info
| Callsign | JBU1420 |
|---|---|
| Flight time | 1h 4m |
| Altitude | 39000 |
| Route | PFLYD1 JASEE JHW Q476 WLKES PUCKY1 |
| Aircraft | A320/M-SDE3FGHIRWY/LB1 |
Departure
| Time | 2026-05-09 03:09 |
|---|---|
| Airport | Cleveland Hopkins International Airport (KCLE) |
Arrival
| Time | 2026-05-09 04:13 |
|---|---|
| Airport | John F. Kennedy International Airport (KJFK) |
| Time | Latitude | Longitude | Altitude | Speed | Heading |
|---|---|---|---|---|---|
| 2026-05-09 02:49 | 41.41119 | -81.84185 | 799 ft | 0 kts | 54° |
| 2026-05-09 03:00 | 41.41113 | -81.84197 | 798 ft | 3 kts | 54° |
| 2026-05-09 03:01 | 41.41103 | -81.84216 | 798 ft | 2 kts | 54° |
| 2026-05-09 03:01 | 41.41093 | -81.84234 | 798 ft | 2 kts | 54° |
| 2026-05-09 03:01 | 41.41083 | -81.84252 | 798 ft | 2 kts | 54° |
| 2026-05-09 03:01 | 41.41073 | -81.84270 | 798 ft | 2 kts | 54° |
| 2026-05-09 03:02 | 41.41061 | -81.84284 | 798 ft | 2 kts | 351° |
| 2026-05-09 03:02 | 41.41047 | -81.84274 | 798 ft | 2 kts | 280° |
| 2026-05-09 03:02 | 41.41046 | -81.84273 | 798 ft | 0 kts | 277° |
| 2026-05-09 03:05 | 41.41048 | -81.84285 | 798 ft | 0 kts | 277° |
| 2026-05-09 03:05 | 41.41050 | -81.84299 | 798 ft | 6 kts | 283° |
| 2026-05-09 03:05 | 41.41071 | -81.84406 | 800 ft | 16 kts | 269° |
| 2026-05-09 03:06 | 41.41065 | -81.84606 | 798 ft | 20 kts | 273° |
| 2026-05-09 03:06 | 41.41094 | -81.84663 | 797 ft | 8 kts | 20° |
| 2026-05-09 03:06 | 41.41148 | -81.84591 | 798 ft | 17 kts | 50° |
| 2026-05-09 03:06 | 41.41261 | -81.84415 | 796 ft | 32 kts | 51° |
| 2026-05-09 03:07 | 41.41407 | -81.84178 | 797 ft | 26 kts | 48° |
| 2026-05-09 03:07 | 41.41436 | -81.84148 | 798 ft | 5 kts | 19° |
| 2026-05-09 03:07 | 41.41441 | -81.84146 | 798 ft | 0 kts | 16° |
| 2026-05-09 03:07 | 41.41445 | -81.84144 | 798 ft | 4 kts | 13° |
| 2026-05-09 03:08 | 41.41500 | -81.84195 | 798 ft | 16 kts | 307° |
| 2026-05-09 03:08 | 41.41459 | -81.84331 | 796 ft | 18 kts | 230° |
| 2026-05-09 03:08 | 41.41356 | -81.84491 | 796 ft | 39 kts | 229° |
| 2026-05-09 03:08 | 41.41028 | -81.85000 | 793 ft | 103 kts | 229° |
| 2026-05-09 03:09 | 41.40453 | -81.85895 | 785 ft | 150 kts | 227° |
| 2026-05-09 03:09 | 41.40002 | -81.86613 | 1101 ft | 149 kts | 228° |
| 2026-05-09 03:09 | 41.39340 | -81.87681 | 1759 ft | 152 kts | 232° |
| 2026-05-09 03:09 | 41.38774 | -81.88913 | 2266 ft | 165 kts | 251° |
| 2026-05-09 03:10 | 41.38768 | -81.90564 | 2581 ft | 195 kts | 277° |
| 2026-05-09 03:10 | 41.39069 | -81.92437 | 3032 ft | 219 kts | 277° |
| 2026-05-09 03:10 | 41.39362 | -81.94495 | 3770 ft | 230 kts | 277° |
| 2026-05-09 03:10 | 41.39652 | -81.96619 | 4698 ft | 235 kts | 276° |
| 2026-05-09 03:11 | 41.39940 | -81.98788 | 5576 ft | 242 kts | 277° |
| 2026-05-09 03:11 | 41.40229 | -82.01006 | 5906 ft | 245 kts | 277° |
| 2026-05-09 03:11 | 41.40517 | -82.03241 | 6011 ft | 245 kts | 277° |
| 2026-05-09 03:11 | 41.40804 | -82.05474 | 6022 ft | 244 kts | 277° |
| 2026-05-09 03:12 | 41.41090 | -82.07705 | 6025 ft | 244 kts | 277° |
| 2026-05-09 03:12 | 41.41419 | -82.09932 | 6109 ft | 249 kts | 285° |
| 2026-05-09 03:12 | 41.42496 | -82.11795 | 6900 ft | 267 kts | 321° |
| 2026-05-09 03:12 | 41.44305 | -82.12558 | 7794 ft | 286 kts | 354° |
| 2026-05-09 03:13 | 41.48003 | -82.10245 | 9565 ft | 310 kts | 39° |
| 2026-05-09 03:13 | 41.49558 | -82.08230 | 10294 ft | 318 kts | 43° |
| 2026-05-09 03:13 | 41.51157 | -82.06038 | 10579 ft | 341 kts | 43° |
| 2026-05-09 03:14 | 41.52873 | -82.03779 | 11121 ft | 350 kts | 41° |
| 2026-05-09 03:14 | 41.54673 | -82.01569 | 11821 ft | 354 kts | 39° |
| 2026-05-09 03:14 | 41.56528 | -81.99436 | 12546 ft | 358 kts | 37° |
| 2026-05-09 03:14 | 41.58466 | -81.97316 | 13283 ft | 361 kts | 36° |
| 2026-05-09 03:15 | 41.60279 | -81.94948 | 13974 ft | 369 kts | 48° |
| 2026-05-09 03:15 | 41.61677 | -81.92047 | 14607 ft | 376 kts | 63° |
| 2026-05-09 03:15 | 41.62529 | -81.88716 | 15218 ft | 383 kts | 78° |
| 2026-05-09 03:15 | 41.62821 | -81.85160 | 15828 ft | 387 kts | 86° |
| 2026-05-09 03:16 | 41.63006 | -81.81548 | 16427 ft | 391 kts | 86° |
| 2026-05-09 03:16 | 41.63202 | -81.77897 | 17035 ft | 396 kts | 85° |
| 2026-05-09 03:16 | 41.63408 | -81.74203 | 17640 ft | 401 kts | 85° |
| 2026-05-09 03:16 | 41.63621 | -81.70474 | 18237 ft | 406 kts | 85° |
| 2026-05-09 03:17 | 41.63836 | -81.66691 | 18754 ft | 410 kts | 85° |
| 2026-05-09 03:17 | 41.64049 | -81.62860 | 19252 ft | 416 kts | 85° |
| 2026-05-09 03:17 | 41.64266 | -81.58973 | 19772 ft | 421 kts | 85° |
| 2026-05-09 03:17 | 41.64490 | -81.55048 | 20296 ft | 427 kts | 83° |
| 2026-05-09 03:18 | 41.65001 | -81.51129 | 20789 ft | 430 kts | 73° |
| 2026-05-09 03:18 | 41.65875 | -81.47285 | 21280 ft | 434 kts | 70° |
| 2026-05-09 03:18 | 41.66779 | -81.43414 | 21791 ft | 439 kts | 70° |
| 2026-05-09 03:18 | 41.67687 | -81.39493 | 22310 ft | 443 kts | 70° |
| 2026-05-09 03:19 | 41.68597 | -81.35538 | 22820 ft | 448 kts | 70° |
| 2026-05-09 03:19 | 41.69513 | -81.31529 | 23333 ft | 453 kts | 70° |
| 2026-05-09 03:19 | 41.70436 | -81.27478 | 23770 ft | 457 kts | 70° |
| 2026-05-09 03:19 | 41.71370 | -81.23388 | 24180 ft | 462 kts | 70° |
| 2026-05-09 03:20 | 41.72313 | -81.19246 | 24594 ft | 466 kts | 70° |
| 2026-05-09 03:20 | 41.73249 | -81.15131 | 24996 ft | 470 kts | 70° |
| 2026-05-09 03:20 | 41.74203 | -81.10927 | 25389 ft | 474 kts | 70° |
| 2026-05-09 03:20 | 41.75165 | -81.06681 | 25787 ft | 478 kts | 70° |
| 2026-05-09 03:21 | 41.76133 | -81.02401 | 26191 ft | 482 kts | 70° |
| 2026-05-09 03:21 | 41.77109 | -80.98088 | 26579 ft | 486 kts | 70° |
| 2026-05-09 03:21 | 41.78096 | -80.93741 | 26952 ft | 490 kts | 70° |
| 2026-05-09 03:21 | 41.79097 | -80.89361 | 27323 ft | 493 kts | 70° |
| 2026-05-09 03:22 | 41.80110 | -80.84945 | 27682 ft | 497 kts | 70° |
| 2026-05-09 03:22 | 41.81130 | -80.80497 | 28036 ft | 501 kts | 70° |
| 2026-05-09 03:22 | 41.82154 | -80.76007 | 28390 ft | 505 kts | 70° |
| 2026-05-09 03:22 | 41.83183 | -80.71486 | 28715 ft | 510 kts | 70° |
| 2026-05-09 03:23 | 41.84217 | -80.66922 | 29027 ft | 514 kts | 70° |
| 2026-05-09 03:23 | 41.85257 | -80.62310 | 29351 ft | 518 kts | 70° |
| 2026-05-09 03:23 | 41.86304 | -80.57665 | 29691 ft | 522 kts | 70° |
| 2026-05-09 03:23 | 41.87371 | -80.52991 | 30013 ft | 526 kts | 69° |
| 2026-05-09 03:24 | 41.88457 | -80.48289 | 30335 ft | 528 kts | 69° |
| 2026-05-09 03:24 | 41.89553 | -80.43575 | 30676 ft | 530 kts | 69° |
| 2026-05-09 03:24 | 41.90652 | -80.38844 | 31012 ft | 532 kts | 69° |
| 2026-05-09 03:24 | 41.91747 | -80.34089 | 31346 ft | 534 kts | 69° |
| 2026-05-09 03:25 | 41.92823 | -80.29372 | 31718 ft | 535 kts | 69° |
| 2026-05-09 03:25 | 41.93906 | -80.24599 | 32203 ft | 533 kts | 69° |
| 2026-05-09 03:25 | 41.94984 | -80.19839 | 32678 ft | 532 kts | 69° |
| 2026-05-09 03:25 | 41.96061 | -80.15089 | 33149 ft | 530 kts | 69° |
| 2026-05-09 03:26 | 41.97132 | -80.10363 | 33620 ft | 529 kts | 69° |
| 2026-05-09 03:26 | 41.98202 | -80.05639 | 34086 ft | 529 kts | 69° |
| 2026-05-09 03:26 | 41.99275 | -80.00898 | 34339 ft | 531 kts | 69° |
| 2026-05-09 03:26 | 42.00348 | -79.96140 | 34646 ft | 532 kts | 69° |
| 2026-05-09 03:27 | 42.01416 | -79.91384 | 34988 ft | 531 kts | 69° |
| 2026-05-09 03:27 | 42.02481 | -79.86629 | 35344 ft | 531 kts | 69° |
| 2026-05-09 03:27 | 42.03541 | -79.81876 | 35686 ft | 530 kts | 69° |
| 2026-05-09 03:27 | 42.04600 | -79.77133 | 36034 ft | 529 kts | 69° |
| 2026-05-09 03:28 | 42.05658 | -79.72391 | 36358 ft | 529 kts | 70° |
| 2026-05-09 03:28 | 42.06715 | -79.67654 | 36689 ft | 528 kts | 70° |
| 2026-05-09 03:28 | 42.07763 | -79.62918 | 37012 ft | 528 kts | 70° |
| 2026-05-09 03:28 | 42.08805 | -79.58174 | 37323 ft | 527 kts | 70° |
| 2026-05-09 03:29 | 42.09841 | -79.53453 | 37635 ft | 526 kts | 70° |
| 2026-05-09 03:29 | 42.10880 | -79.48719 | 37940 ft | 526 kts | 70° |
| 2026-05-09 03:29 | 42.11901 | -79.44067 | 38233 ft | 525 kts | 70° |
| 2026-05-09 03:29 | 42.12937 | -79.39353 | 38536 ft | 525 kts | 70° |
| 2026-05-09 03:30 | 42.13974 | -79.34639 | 38755 ft | 525 kts | 70° |
| 2026-05-09 03:30 | 42.15011 | -79.29925 | 38900 ft | 525 kts | 71° |
| 2026-05-09 03:30 | 42.17037 | -79.20494 | 38949 ft | 524 kts | 75° |
| 2026-05-09 03:31 | 42.17645 | -79.10719 | 38942 ft | 525 kts | 96° |
| 2026-05-09 03:31 | 42.16128 | -79.01177 | 38954 ft | 521 kts | 112° |
| 2026-05-09 03:32 | 42.13814 | -78.91909 | 38951 ft | 522 kts | 112° |
| 2026-05-09 03:32 | 42.11498 | -78.82645 | 38962 ft | 522 kts | 112° |
| 2026-05-09 03:33 | 42.09164 | -78.73374 | 38969 ft | 523 kts | 112° |
| 2026-05-09 03:33 | 42.06819 | -78.64114 | 38971 ft | 523 kts | 112° |
| 2026-05-09 03:34 | 42.04462 | -78.54842 | 38975 ft | 524 kts | 112° |
| 2026-05-09 03:34 | 42.02101 | -78.45561 | 38948 ft | 524 kts | 112° |
| 2026-05-09 03:35 | 41.99732 | -78.36287 | 38963 ft | 524 kts | 112° |
| 2026-05-09 03:35 | 41.97347 | -78.27039 | 38972 ft | 524 kts | 112° |
| 2026-05-09 03:36 | 41.94973 | -78.17842 | 38976 ft | 524 kts | 112° |
| 2026-05-09 03:36 | 41.92581 | -78.08596 | 38980 ft | 524 kts | 112° |
| 2026-05-09 03:37 | 41.90182 | -77.99344 | 38984 ft | 524 kts | 112° |
| 2026-05-09 03:37 | 41.87772 | -77.90121 | 38974 ft | 524 kts | 113° |
| 2026-05-09 03:38 | 41.85354 | -77.80902 | 38981 ft | 524 kts | 112° |
| 2026-05-09 03:38 | 41.82937 | -77.71672 | 38986 ft | 524 kts | 113° |
| 2026-05-09 03:39 | 41.80507 | -77.62466 | 38986 ft | 524 kts | 113° |
| 2026-05-09 03:39 | 41.78060 | -77.53259 | 38985 ft | 524 kts | 113° |
| 2026-05-09 03:40 | 41.75629 | -77.44119 | 38988 ft | 524 kts | 113° |
| 2026-05-09 03:40 | 41.73579 | -77.36420 | 38987 ft | 524 kts | 113° |
| 2026-05-09 03:41 | 41.70727 | -77.25748 | 38989 ft | 523 kts | 113° |
| 2026-05-09 03:41 | 41.68265 | -77.16590 | 38945 ft | 524 kts | 113° |
| 2026-05-09 03:42 | 41.65791 | -77.07416 | 38946 ft | 525 kts | 113° |
| 2026-05-09 03:42 | 41.63303 | -76.98238 | 38955 ft | 525 kts | 113° |
| 2026-05-09 03:43 | 41.60804 | -76.89060 | 38964 ft | 525 kts | 113° |
| 2026-05-09 03:43 | 41.58293 | -76.79886 | 38957 ft | 526 kts | 113° |
| 2026-05-09 03:44 | 41.55779 | -76.70717 | 38961 ft | 527 kts | 113° |
| 2026-05-09 03:44 | 41.53254 | -76.61537 | 38975 ft | 527 kts | 113° |
| 2026-05-09 03:45 | 41.50723 | -76.52345 | 38978 ft | 527 kts | 113° |
| 2026-05-09 03:45 | 41.48190 | -76.43173 | 38976 ft | 527 kts | 113° |
| 2026-05-09 03:46 | 41.45650 | -76.34014 | 38589 ft | 526 kts | 113° |
| 2026-05-09 03:46 | 41.44385 | -76.29477 | 37861 ft | 529 kts | 113° |
| 2026-05-09 03:46 | 41.43100 | -76.24890 | 37355 ft | 527 kts | 113° |
| 2026-05-09 03:47 | 41.41821 | -76.20327 | 36843 ft | 526 kts | 113° |
| 2026-05-09 03:47 | 41.40540 | -76.15760 | 36302 ft | 526 kts | 113° |
| 2026-05-09 03:47 | 41.39260 | -76.11198 | 35758 ft | 526 kts | 113° |
| 2026-05-09 03:47 | 41.37979 | -76.06639 | 35206 ft | 526 kts | 113° |
| 2026-05-09 03:48 | 41.36692 | -76.02073 | 34648 ft | 526 kts | 113° |
| 2026-05-09 03:48 | 41.35406 | -75.97504 | 34070 ft | 527 kts | 112° |
| 2026-05-09 03:48 | 41.34116 | -75.92932 | 33433 ft | 528 kts | 112° |
| 2026-05-09 03:48 | 41.32829 | -75.88378 | 32866 ft | 522 kts | 113° |
| 2026-05-09 03:49 | 41.31562 | -75.83889 | 32257 ft | 514 kts | 114° |
| 2026-05-09 03:49 | 41.30313 | -75.79481 | 31735 ft | 507 kts | 114° |
| 2026-05-09 03:49 | 41.29071 | -75.75120 | 31180 ft | 501 kts | 113° |
| 2026-05-09 03:49 | 41.27838 | -75.70812 | 30646 ft | 496 kts | 113° |
| 2026-05-09 03:50 | 41.26598 | -75.66583 | 30214 ft | 488 kts | 114° |
| 2026-05-09 03:50 | 41.25280 | -75.62426 | 29487 ft | 487 kts | 116° |
| 2026-05-09 03:50 | 41.23904 | -75.58337 | 28617 ft | 483 kts | 117° |
| 2026-05-09 03:50 | 41.22510 | -75.54325 | 28069 ft | 474 kts | 118° |
| 2026-05-09 03:51 | 41.21146 | -75.50425 | 27806 ft | 469 kts | 118° |
| 2026-05-09 03:51 | 41.19785 | -75.46501 | 27538 ft | 466 kts | 118° |
| 2026-05-09 03:51 | 41.18446 | -75.42592 | 27275 ft | 464 kts | 117° |
| 2026-05-09 03:51 | 41.17129 | -75.38697 | 27003 ft | 462 kts | 117° |
| 2026-05-09 03:52 | 41.15826 | -75.34813 | 26749 ft | 459 kts | 117° |
| 2026-05-09 03:52 | 41.14540 | -75.30960 | 26442 ft | 455 kts | 117° |
| 2026-05-09 03:52 | 41.13257 | -75.27129 | 26020 ft | 453 kts | 117° |
| 2026-05-09 03:52 | 41.11980 | -75.23324 | 25605 ft | 452 kts | 117° |
| 2026-05-09 03:53 | 41.10702 | -75.19535 | 25158 ft | 447 kts | 117° |
| 2026-05-09 03:53 | 41.09439 | -75.15801 | 24726 ft | 441 kts | 118° |
| 2026-05-09 03:53 | 41.08192 | -75.12119 | 24290 ft | 435 kts | 118° |
| 2026-05-09 03:53 | 41.06958 | -75.08484 | 23854 ft | 429 kts | 118° |
| 2026-05-09 03:54 | 41.05734 | -75.04900 | 23387 ft | 424 kts | 118° |
| 2026-05-09 03:54 | 41.04527 | -75.01366 | 22923 ft | 417 kts | 118° |
| 2026-05-09 03:54 | 41.03336 | -74.97877 | 22512 ft | 415 kts | 118° |
| 2026-05-09 03:54 | 41.02144 | -74.94394 | 22081 ft | 414 kts | 118° |
| 2026-05-09 03:55 | 41.00960 | -74.90930 | 21652 ft | 412 kts | 118° |
| 2026-05-09 03:55 | 40.99875 | -74.87411 | 21216 ft | 413 kts | 110° |
| 2026-05-09 03:55 | 40.99221 | -74.83720 | 20781 ft | 413 kts | 99° |
| 2026-05-09 03:55 | 40.98797 | -74.79967 | 20345 ft | 412 kts | 99° |
| 2026-05-09 03:56 | 40.98366 | -74.76226 | 19911 ft | 411 kts | 99° |
| 2026-05-09 03:56 | 40.97931 | -74.72498 | 19470 ft | 408 kts | 99° |
| 2026-05-09 03:56 | 40.97496 | -74.68820 | 19084 ft | 400 kts | 99° |
| 2026-05-09 03:56 | 40.97066 | -74.65230 | 18975 ft | 392 kts | 99° |
| 2026-05-09 03:57 | 40.96643 | -74.61713 | 19005 ft | 393 kts | 99° |
| 2026-05-09 03:57 | 40.96215 | -74.58145 | 19005 ft | 393 kts | 99° |
| 2026-05-09 03:57 | 40.95792 | -74.54572 | 19003 ft | 392 kts | 99° |
| 2026-05-09 03:57 | 40.95369 | -74.50998 | 19007 ft | 393 kts | 99° |
| 2026-05-09 03:58 | 40.94946 | -74.47431 | 19007 ft | 393 kts | 99° |
| 2026-05-09 03:58 | 40.94523 | -74.43866 | 19007 ft | 393 kts | 99° |
| 2026-05-09 03:58 | 40.94097 | -74.40298 | 19007 ft | 393 kts | 99° |
| 2026-05-09 03:58 | 40.93669 | -74.36730 | 19007 ft | 393 kts | 99° |
| 2026-05-09 03:59 | 40.93382 | -74.34328 | 19011 ft | 392 kts | 99° |
| 2026-05-09 03:59 | 40.92961 | -74.30821 | 19007 ft | 390 kts | 99° |
| 2026-05-09 03:59 | 40.92531 | -74.27284 | 19008 ft | 390 kts | 99° |
| 2026-05-09 03:59 | 40.92096 | -74.23748 | 19007 ft | 390 kts | 99° |
| 2026-05-09 04:00 | 40.91662 | -74.20206 | 19003 ft | 390 kts | 99° |
| 2026-05-09 04:00 | 40.91234 | -74.16670 | 19007 ft | 390 kts | 99° |
| 2026-05-09 04:00 | 40.90722 | -74.13149 | 18660 ft | 390 kts | 108° |
| 2026-05-09 04:00 | 40.89639 | -74.09862 | 17587 ft | 389 kts | 126° |
| 2026-05-09 04:01 | 40.88062 | -74.06992 | 16670 ft | 385 kts | 130° |
| 2026-05-09 04:01 | 40.86547 | -74.04093 | 15804 ft | 382 kts | 127° |
| 2026-05-09 04:01 | 40.85127 | -74.01142 | 15012 ft | 379 kts | 125° |
| 2026-05-09 04:01 | 40.83756 | -73.98193 | 14248 ft | 375 kts | 124° |
| 2026-05-09 04:02 | 40.82399 | -73.95273 | 13477 ft | 371 kts | 124° |
| 2026-05-09 04:02 | 40.81047 | -73.92400 | 12688 ft | 365 kts | 125° |
| 2026-05-09 04:02 | 40.79699 | -73.89590 | 11933 ft | 360 kts | 126° |
| 2026-05-09 04:02 | 40.78357 | -73.86845 | 11206 ft | 355 kts | 127° |
| 2026-05-09 04:03 | 40.77013 | -73.84143 | 10485 ft | 350 kts | 127° |
| 2026-05-09 04:03 | 40.75675 | -73.81488 | 9814 ft | 345 kts | 128° |
| 2026-05-09 04:03 | 40.74393 | -73.78939 | 9408 ft | 330 kts | 128° |
| 2026-05-09 04:03 | 40.73139 | -73.76447 | 8842 ft | 324 kts | 128° |
| 2026-05-09 04:04 | 40.71899 | -73.73984 | 8219 ft | 320 kts | 128° |
| 2026-05-09 04:04 | 40.70671 | -73.71548 | 7600 ft | 317 kts | 128° |
| 2026-05-09 04:04 | 40.69457 | -73.69137 | 7002 ft | 314 kts | 128° |
| 2026-05-09 04:04 | 40.68255 | -73.66752 | 6417 ft | 311 kts | 128° |
| 2026-05-09 04:05 | 40.67070 | -73.64401 | 5822 ft | 307 kts | 128° |
| 2026-05-09 04:05 | 40.65898 | -73.62076 | 5257 ft | 302 kts | 127° |
| 2026-05-09 04:05 | 40.64747 | -73.59786 | 4691 ft | 298 kts | 127° |
| 2026-05-09 04:05 | 40.63614 | -73.57533 | 4144 ft | 292 kts | 127° |
| 2026-05-09 04:06 | 40.62508 | -73.55340 | 3710 ft | 282 kts | 126° |
| 2026-05-09 04:06 | 40.61469 | -73.53280 | 3629 ft | 259 kts | 127° |
| 2026-05-09 04:06 | 40.60515 | -73.51388 | 3568 ft | 236 kts | 127° |
| 2026-05-09 04:06 | 40.59635 | -73.49643 | 3515 ft | 225 kts | 127° |
| 2026-05-09 04:07 | 40.58738 | -73.47968 | 3462 ft | 222 kts | 138° |
| 2026-05-09 04:07 | 40.57417 | -73.47213 | 3255 ft | 207 kts | 193° |
| 2026-05-09 04:07 | 40.56266 | -73.48074 | 3879 ft | 192 kts | 229° |
| 2026-05-09 04:07 | 40.55297 | -73.49376 | 3914 ft | 198 kts | 228° |
| 2026-05-09 04:08 | 40.54422 | -73.50705 | 3861 ft | 192 kts | 246° |
| 2026-05-09 04:08 | 40.54166 | -73.52397 | 3814 ft | 191 kts | 272° |
| 2026-05-09 04:08 | 40.54450 | -73.54117 | 3760 ft | 193 kts | 294° |
| 2026-05-09 04:08 | 40.55107 | -73.55606 | 3585 ft | 189 kts | 298° |
| 2026-05-09 04:09 | 40.55782 | -73.57068 | 3358 ft | 186 kts | 298° |
| 2026-05-09 04:09 | 40.56444 | -73.58513 | 3114 ft | 184 kts | 298° |
| 2026-05-09 04:09 | 40.57104 | -73.59956 | 2869 ft | 184 kts | 298° |
| 2026-05-09 04:09 | 40.57760 | -73.61395 | 2616 ft | 183 kts | 298° |
| 2026-05-09 04:10 | 40.58415 | -73.62831 | 2404 ft | 181 kts | 298° |
| 2026-05-09 04:10 | 40.59050 | -73.64222 | 2141 ft | 172 kts | 298° |
| 2026-05-09 04:10 | 40.59641 | -73.65518 | 1915 ft | 155 kts | 298° |
| 2026-05-09 04:10 | 40.60164 | -73.66663 | 1712 ft | 139 kts | 298° |
| 2026-05-09 04:11 | 40.60651 | -73.67736 | 1525 ft | 135 kts | 297° |
| 2026-05-09 04:11 | 40.61133 | -73.68799 | 1345 ft | 136 kts | 298° |
| 2026-05-09 04:11 | 40.61615 | -73.69859 | 1162 ft | 137 kts | 298° |
| 2026-05-09 04:11 | 40.62104 | -73.70935 | 973 ft | 138 kts | 298° |
| 2026-05-09 04:12 | 40.62593 | -73.72021 | 779 ft | 138 kts | 298° |
| 2026-05-09 04:12 | 40.63071 | -73.73126 | 613 ft | 140 kts | 299° |
| 2026-05-09 04:12 | 40.63567 | -73.74238 | 398 ft | 141 kts | 304° |
| 2026-05-09 04:12 | 40.64089 | -73.75330 | 221 ft | 140 kts | 302° |
| 2026-05-09 04:13 | 40.64593 | -73.76426 | 46 ft | 139 kts | 304° |
| 2026-05-09 04:13 | 40.65036 | -73.77398 | 20 ft | 106 kts | 302° |
| 2026-05-09 04:13 | 40.65326 | -73.78031 | 21 ft | 56 kts | 301° |
| 2026-05-09 04:13 | 40.65423 | -73.78296 | 21 ft | 24 kts | 274° |
| 2026-05-09 04:14 | 40.65339 | -73.78421 | 21 ft | 0 kts | 210° |
| 2026-05-09 04:14 | 40.65323 | -73.78430 | 20 ft | 5 kts | 199° |
| 2026-05-09 04:15 | 40.65296 | -73.78435 | 20 ft | 3 kts | 167° |
| 2026-05-09 04:15 | 40.65253 | -73.78362 | 20 ft | 18 kts | 117° |
| 2026-05-09 04:15 | 40.65167 | -73.78156 | 20 ft | 33 kts | 120° |
| 2026-05-09 04:15 | 40.65044 | -73.77879 | 20 ft | 36 kts | 120° |
| 2026-05-09 04:16 | 40.64911 | -73.77588 | 20 ft | 38 kts | 122° |
| 2026-05-09 04:16 | 40.64771 | -73.77285 | 20 ft | 39 kts | 122° |
| 2026-05-09 04:16 | 40.64596 | -73.77084 | 20 ft | 33 kts | 184° |
| 2026-05-09 04:16 | 40.64442 | -73.77141 | 22 ft | 11 kts | 263° |
| 2026-05-09 04:17 | 40.64475 | -73.77240 | 21 ft | 12 kts | 289° |
| 2026-05-09 04:17 | 40.64510 | -73.77334 | 21 ft | 13 kts | 341° |
| 2026-05-09 04:17 | 40.64541 | -73.77338 | 21 ft | 0 kts | 358° |